sensor_id;sensor_type;location;lat;lon;timestamp;P1;durP1;ratioP1;P2;durP2;ratioP2
27357;SDS011;14831;50.474;7.616;2023-07-29T00:00:57;2.6;;;1.1;;
27357;SDS011;14831;50.474;7.616;2023-07-29T00:05:57;2.6;;;1.1;;
27357;SDS011;14831;50.474;7.616;2023-07-29T00:10:57;2.6;;;1.1;;
27357;SDS011;14831;50.474;7.616;2023-07-29T00:15:57;1.7;;;1.1;;
27357;SDS011;14831;50.474;7.616;2023-07-29T00:20:57;1.7;;;1.1;;
27357;SDS011;14831;50.474;7.616;2023-07-29T00:25:57;1.7;;;1.1;;
27357;SDS011;14831;50.474;7.616;2023-07-29T00:30:57;1.7;;;1.1;;
27357;SDS011;14831;50.474;7.616;2023-07-29T00:35:57;1.7;;;1.1;;
27357;SDS011;14831;50.474;7.616;2023-07-29T00:40:57;1.7;;;1.1;;
27357;SDS011;14831;50.474;7.616;2023-07-29T00:45:57;1.2;;;1.1;;
27357;SDS011;14831;50.474;7.616;2023-07-29T00:50:57;1.2;;;1.1;;
27357;SDS011;14831;50.474;7.616;2023-07-29T00:55:57;1.2;;;1.1;;
27357;SDS011;14831;50.474;7.616;2023-07-29T01:00:58;1.2;;;1.1;;
27357;SDS011;14831;50.474;7.616;2023-07-29T01:06:04;1.2;;;1.1;;
27357;SDS011;14831;50.474;7.616;2023-07-29T01:11:03;1.2;;;1.1;;
27357;SDS011;14831;50.474;7.616;2023-07-29T01:16:01;1.8;;;1.2;;
27357;SDS011;14831;50.474;7.616;2023-07-29T01:20:59;1.8;;;1.2;;
27357;SDS011;14831;50.474;7.616;2023-07-29T01:25:58;1.8;;;1.2;;
27357;SDS011;14831;50.474;7.616;2023-07-29T01:31:01;1.8;;;1.2;;
27357;SDS011;14831;50.474;7.616;2023-07-29T01:36:02;1.8;;;1.2;;
27357;SDS011;14831;50.474;7.616;2023-07-29T01:40:58;1.8;;;1.2;;
27357;SDS011;14831;50.474;7.616;2023-07-29T01:45:57;1.3;;;1.1;;
27357;SDS011;14831;50.474;7.616;2023-07-29T01:50:57;1.3;;;1.1;;
27357;SDS011;14831;50.474;7.616;2023-07-29T01:55:57;1.3;;;1.1;;
27357;SDS011;14831;50.474;7.616;2023-07-29T02:00:57;1.3;;;1.1;;
27357;SDS011;14831;50.474;7.616;2023-07-29T02:05:57;1.3;;;1.1;;
27357;SDS011;14831;50.474;7.616;2023-07-29T02:10:57;1.3;;;1.1;;
27357;SDS011;14831;50.474;7.616;2023-07-29T02:15:57;3.2;;;1.6;;
27357;SDS011;14831;50.474;7.616;2023-07-29T02:20:57;3.2;;;1.6;;
27357;SDS011;14831;50.474;7.616;2023-07-29T02:25:57;3.2;;;1.6;;
27357;SDS011;14831;50.474;7.616;2023-07-29T02:31:15;3.2;;;1.6;;
27357;SDS011;14831;50.474;7.616;2023-07-29T02:35:57;3.2;;;1.6;;
27357;SDS011;14831;50.474;7.616;2023-07-29T02:40:57;3.2;;;1.6;;
27357;SDS011;14831;50.474;7.616;2023-07-29T02:45:57;1.8;;;1.5;;
27357;SDS011;14831;50.474;7.616;2023-07-29T02:50:57;1.8;;;1.5;;
27357;SDS011;14831;50.474;7.616;2023-07-29T02:55:57;1.8;;;1.5;;
27357;SDS011;14831;50.474;7.616;2023-07-29T03:01:00;1.8;;;1.5;;
27357;SDS011;14831;50.474;7.616;2023-07-29T03:05:59;1.8;;;1.5;;
27357;SDS011;14831;50.474;7.616;2023-07-29T03:10:58;1.8;;;1.5;;
27357;SDS011;14831;50.474;7.616;2023-07-29T03:16:04;1.7;;;1.6;;
27357;SDS011;14831;50.474;7.616;2023-07-29T03:20:57;1.7;;;1.6;;
27357;SDS011;14831;50.474;7.616;2023-07-29T03:25:58;1.7;;;1.6;;
27357;SDS011;14831;50.474;7.616;2023-07-29T03:30:57;1.7;;;1.6;;
27357;SDS011;14831;50.474;7.616;2023-07-29T03:35:57;1.7;;;1.6;;
27357;SDS011;14831;50.474;7.616;2023-07-29T03:40:57;1.7;;;1.6;;
27357;SDS011;14831;50.474;7.616;2023-07-29T03:45:57;2.0;;;1.9;;
27357;SDS011;14831;50.474;7.616;2023-07-29T03:50:57;2.0;;;1.9;;
27357;SDS011;14831;50.474;7.616;2023-07-29T03:55:57;2.0;;;1.9;;
27357;SDS011;14831;50.474;7.616;2023-07-29T04:00:57;2.0;;;1.9;;
27357;SDS011;14831;50.474;7.616;2023-07-29T04:05:57;2.0;;;1.9;;
27357;SDS011;14831;50.474;7.616;2023-07-29T04:10:57;2.0;;;1.9;;
27357;SDS011;14831;50.474;7.616;2023-07-29T04:15:57;2.1;;;1.9;;
27357;SDS011;14831;50.474;7.616;2023-07-29T04:20:57;2.1;;;1.9;;
27357;SDS011;14831;50.474;7.616;2023-07-29T04:25:57;2.1;;;1.9;;
27357;SDS011;14831;50.474;7.616;2023-07-29T04:30:57;2.1;;;1.9;;
27357;SDS011;14831;50.474;7.616;2023-07-29T04:35:57;2.1;;;1.9;;
27357;SDS011;14831;50.474;7.616;2023-07-29T04:40:57;2.1;;;1.9;;
27357;SDS011;14831;50.474;7.616;2023-07-29T04:45:57;3.2;;;2.3;;
27357;SDS011;14831;50.474;7.616;2023-07-29T04:50:57;3.2;;;2.3;;
27357;SDS011;14831;50.474;7.616;2023-07-29T04:55:58;3.2;;;2.3;;
27357;SDS011;14831;50.474;7.616;2023-07-29T05:00:57;3.2;;;2.3;;
27357;SDS011;14831;50.474;7.616;2023-07-29T05:05:58;3.2;;;2.3;;
27357;SDS011;14831;50.474;7.616;2023-07-29T05:10:57;3.2;;;2.3;;
27357;SDS011;14831;50.474;7.616;2023-07-29T05:15:57;2.2;;;1.8;;
27357;SDS011;14831;50.474;7.616;2023-07-29T05:20:57;2.2;;;1.8;;
27357;SDS011;14831;50.474;7.616;2023-07-29T05:25:57;2.2;;;1.8;;
27357;SDS011;14831;50.474;7.616;2023-07-29T05:31:00;2.2;;;1.8;;
27357;SDS011;14831;50.474;7.616;2023-07-29T05:35:57;2.2;;;1.8;;
27357;SDS011;14831;50.474;7.616;2023-07-29T05:40:57;2.2;;;1.8;;
27357;SDS011;14831;50.474;7.616;2023-07-29T05:45:57;4.5;;;2.5;;
27357;SDS011;14831;50.474;7.616;2023-07-29T05:50:57;4.5;;;2.5;;
27357;SDS011;14831;50.474;7.616;2023-07-29T05:55:57;4.5;;;2.5;;
27357;SDS011;14831;50.474;7.616;2023-07-29T06:00:57;4.5;;;2.5;;
27357;SDS011;14831;50.474;7.616;2023-07-29T06:05:57;4.5;;;2.5;;
27357;SDS011;14831;50.474;7.616;2023-07-29T06:10:57;4.5;;;2.5;;
27357;SDS011;14831;50.474;7.616;2023-07-29T06:15:57;5.7;;;2.9;;
27357;SDS011;14831;50.474;7.616;2023-07-29T06:20:57;5.7;;;2.9;;
27357;SDS011;14831;50.474;7.616;2023-07-29T06:25:57;5.7;;;2.9;;
27357;SDS011;14831;50.474;7.616;2023-07-29T06:30:57;5.7;;;2.9;;
27357;SDS011;14831;50.474;7.616;2023-07-29T06:35:57;5.7;;;2.9;;
27357;SDS011;14831;50.474;7.616;2023-07-29T06:40:57;5.7;;;2.9;;
27357;SDS011;14831;50.474;7.616;2023-07-29T06:45:57;3.0;;;2.7;;
27357;SDS011;14831;50.474;7.616;2023-07-29T06:50:57;3.0;;;2.7;;
27357;SDS011;14831;50.474;7.616;2023-07-29T06:55:57;3.0;;;2.7;;
27357;SDS011;14831;50.474;7.616;2023-07-29T07:00:57;3.0;;;2.7;;
27357;SDS011;14831;50.474;7.616;2023-07-29T07:05:58;3.0;;;2.7;;
27357;SDS011;14831;50.474;7.616;2023-07-29T07:10:57;3.0;;;2.7;;
27357;SDS011;14831;50.474;7.616;2023-07-29T07:15:57;3.3;;;2.5;;
27357;SDS011;14831;50.474;7.616;2023-07-29T07:20:57;3.3;;;2.5;;
27357;SDS011;14831;50.474;7.616;2023-07-29T07:25:57;3.3;;;2.5;;
27357;SDS011;14831;50.474;7.616;2023-07-29T07:30:57;3.3;;;2.5;;
27357;SDS011;14831;50.474;7.616;2023-07-29T07:35:57;3.3;;;2.5;;
27357;SDS011;14831;50.474;7.616;2023-07-29T07:40:57;3.3;;;2.5;;
27357;SDS011;14831;50.474;7.616;2023-07-29T07:45:58;3.1;;;2.2;;
27357;SDS011;14831;50.474;7.616;2023-07-29T07:50:57;3.1;;;2.2;;
27357;SDS011;14831;50.474;7.616;2023-07-29T07:55:57;3.1;;;2.2;;
27357;SDS011;14831;50.474;7.616;2023-07-29T08:01:01;3.1;;;2.2;;
27357;SDS011;14831;50.474;7.616;2023-07-29T08:05:57;3.1;;;2.2;;
27357;SDS011;14831;50.474;7.616;2023-07-29T08:10:57;3.1;;;2.2;;
27357;SDS011;14831;50.474;7.616;2023-07-29T08:15:57;4.7;;;2.1;;
27357;SDS011;14831;50.474;7.616;2023-07-29T08:20:58;4.7;;;2.1;;
27357;SDS011;14831;50.474;7.616;2023-07-29T08:25:58;4.7;;;2.1;;
27357;SDS011;14831;50.474;7.616;2023-07-29T08:30:57;4.7;;;2.1;;
27357;SDS011;14831;50.474;7.616;2023-07-29T08:35:57;4.7;;;2.1;;
27357;SDS011;14831;50.474;7.616;2023-07-29T08:41:03;4.7;;;2.1;;
27357;SDS011;14831;50.474;7.616;2023-07-29T08:45:59;3.5;;;1.9;;
27357;SDS011;14831;50.474;7.616;2023-07-29T08:50:59;3.5;;;1.9;;
27357;SDS011;14831;50.474;7.616;2023-07-29T08:55:57;3.5;;;1.9;;
27357;SDS011;14831;50.474;7.616;2023-07-29T09:00:57;3.5;;;1.9;;
27357;SDS011;14831;50.474;7.616;2023-07-29T09:05:58;3.5;;;1.9;;
27357;SDS011;14831;50.474;7.616;2023-07-29T09:10:57;3.5;;;1.9;;
27357;SDS011;14831;50.474;7.616;2023-07-29T09:15:57;2.6;;;2.0;;
27357;SDS011;14831;50.474;7.616;2023-07-29T09:20:59;2.6;;;2.0;;
27357;SDS011;14831;50.474;7.616;2023-07-29T09:26:01;2.6;;;2.0;;
27357;SDS011;14831;50.474;7.616;2023-07-29T09:30:57;2.6;;;2.0;;
27357;SDS011;14831;50.474;7.616;2023-07-29T09:35:57;2.6;;;2.0;;
27357;SDS011;14831;50.474;7.616;2023-07-29T09:40:57;2.6;;;2.0;;
27357;SDS011;14831;50.474;7.616;2023-07-29T09:45:59;2.9;;;2.4;;
27357;SDS011;14831;50.474;7.616;2023-07-29T09:50:57;2.9;;;2.4;;
27357;SDS011;14831;50.474;7.616;2023-07-29T09:55:58;2.9;;;2.4;;
27357;SDS011;14831;50.474;7.616;2023-07-29T10:00:57;2.9;;;2.4;;
27357;SDS011;14831;50.474;7.616;2023-07-29T10:06:00;2.9;;;2.4;;
27357;SDS011;14831;50.474;7.616;2023-07-29T10:10:59;2.9;;;2.4;;
27357;SDS011;14831;50.474;7.616;2023-07-29T10:15:57;4.5;;;2.4;;
27357;SDS011;14831;50.474;7.616;2023-07-29T10:20:59;4.5;;;2.4;;
27357;SDS011;14831;50.474;7.616;2023-07-29T10:26:02;4.5;;;2.4;;
27357;SDS011;14831;50.474;7.616;2023-07-29T10:30:57;4.5;;;2.4;;
27357;SDS011;14831;50.474;7.616;2023-07-29T10:35:57;4.5;;;2.4;;
27357;SDS011;14831;50.474;7.616;2023-07-29T10:40:57;4.5;;;2.4;;
27357;SDS011;14831;50.474;7.616;2023-07-29T10:45:58;4.8;;;2.7;;
27357;SDS011;14831;50.474;7.616;2023-07-29T10:51:22;4.8;;;2.7;;
27357;SDS011;14831;50.474;7.616;2023-07-29T10:55:57;4.8;;;2.7;;
27357;SDS011;14831;50.474;7.616;2023-07-29T11:00:57;4.8;;;2.7;;
27357;SDS011;14831;50.474;7.616;2023-07-29T11:06:04;4.8;;;2.7;;
27357;SDS011;14831;50.474;7.616;2023-07-29T11:10:59;4.8;;;2.7;;
27357;SDS011;14831;50.474;7.616;2023-07-29T11:15:58;4.1;;;3.0;;
27357;SDS011;14831;50.474;7.616;2023-07-29T11:20:58;4.1;;;3.0;;
27357;SDS011;14831;50.474;7.616;2023-07-29T11:25:57;4.1;;;3.0;;
27357;SDS011;14831;50.474;7.616;2023-07-29T11:30:57;4.1;;;3.0;;
27357;SDS011;14831;50.474;7.616;2023-07-29T11:35:57;4.1;;;3.0;;
27357;SDS011;14831;50.474;7.616;2023-07-29T11:41:00;4.1;;;3.0;;
27357;SDS011;14831;50.474;7.616;2023-07-29T11:46:00;4.1;;;2.8;;
27357;SDS011;14831;50.474;7.616;2023-07-29T11:50:57;4.1;;;2.8;;
27357;SDS011;14831;50.474;7.616;2023-07-29T11:55:58;4.1;;;2.8;;
27357;SDS011;14831;50.474;7.616;2023-07-29T12:00:57;4.1;;;2.8;;
27357;SDS011;14831;50.474;7.616;2023-07-29T12:05:57;4.1;;;2.8;;
27357;SDS011;14831;50.474;7.616;2023-07-29T12:10:57;4.1;;;2.8;;
27357;SDS011;14831;50.474;7.616;2023-07-29T12:16:01;4.0;;;2.7;;
27357;SDS011;14831;50.474;7.616;2023-07-29T12:20:57;4.0;;;2.7;;
27357;SDS011;14831;50.474;7.616;2023-07-29T12:25:58;4.0;;;2.7;;
27357;SDS011;14831;50.474;7.616;2023-07-29T12:30:57;4.0;;;2.7;;
27357;SDS011;14831;50.474;7.616;2023-07-29T12:35:57;4.0;;;2.7;;
27357;SDS011;14831;50.474;7.616;2023-07-29T12:40:57;4.0;;;2.7;;
27357;SDS011;14831;50.474;7.616;2023-07-29T12:45:57;3.1;;;2.4;;
27357;SDS011;14831;50.474;7.616;2023-07-29T12:50:57;3.1;;;2.4;;
27357;SDS011;14831;50.474;7.616;2023-07-29T12:55:57;3.1;;;2.4;;
27357;SDS011;14831;50.474;7.616;2023-07-29T13:00:57;3.1;;;2.4;;
27357;SDS011;14831;50.474;7.616;2023-07-29T13:05:57;3.1;;;2.4;;
27357;SDS011;14831;50.474;7.616;2023-07-29T13:10:57;3.1;;;2.4;;
27357;SDS011;14831;50.474;7.616;2023-07-29T13:15:57;2.5;;;2.3;;
27357;SDS011;14831;50.474;7.616;2023-07-29T13:20:57;2.5;;;2.3;;
27357;SDS011;14831;50.474;7.616;2023-07-29T13:25:57;2.5;;;2.3;;
27357;SDS011;14831;50.474;7.616;2023-07-29T13:30:57;2.5;;;2.3;;
27357;SDS011;14831;50.474;7.616;2023-07-29T13:35:57;2.5;;;2.3;;
27357;SDS011;14831;50.474;7.616;2023-07-29T13:40:57;2.5;;;2.3;;
27357;SDS011;14831;50.474;7.616;2023-07-29T13:45:57;2.6;;;2.4;;
27357;SDS011;14831;50.474;7.616;2023-07-29T13:50:57;2.6;;;2.4;;
27357;SDS011;14831;50.474;7.616;2023-07-29T13:55:57;2.6;;;2.4;;
27357;SDS011;14831;50.474;7.616;2023-07-29T14:00:57;2.6;;;2.4;;
27357;SDS011;14831;50.474;7.616;2023-07-29T14:05:57;2.6;;;2.4;;
27357;SDS011;14831;50.474;7.616;2023-07-29T14:10:57;2.6;;;2.4;;
27357;SDS011;14831;50.474;7.616;2023-07-29T14:16:00;2.4;;;2.1;;
27357;SDS011;14831;50.474;7.616;2023-07-29T14:20:57;2.4;;;2.1;;
27357;SDS011;14831;50.474;7.616;2023-07-29T14:25:57;2.4;;;2.1;;
27357;SDS011;14831;50.474;7.616;2023-07-29T14:30:57;2.4;;;2.1;;
27357;SDS011;14831;50.474;7.616;2023-07-29T14:35:57;2.4;;;2.1;;
27357;SDS011;14831;50.474;7.616;2023-07-29T14:40:57;2.4;;;2.1;;
27357;SDS011;14831;50.474;7.616;2023-07-29T14:45:57;2.7;;;2.1;;
27357;SDS011;14831;50.474;7.616;2023-07-29T14:50:57;2.7;;;2.1;;
27357;SDS011;14831;50.474;7.616;2023-07-29T14:55:57;2.7;;;2.1;;
27357;SDS011;14831;50.474;7.616;2023-07-29T15:00:57;2.7;;;2.1;;
27357;SDS011;14831;50.474;7.616;2023-07-29T15:05:57;2.7;;;2.1;;
27357;SDS011;14831;50.474;7.616;2023-07-29T15:10:57;2.7;;;2.1;;
27357;SDS011;14831;50.474;7.616;2023-07-29T15:15:57;2.6;;;2.3;;
27357;SDS011;14831;50.474;7.616;2023-07-29T15:20:57;2.6;;;2.3;;
27357;SDS011;14831;50.474;7.616;2023-07-29T15:25:57;2.6;;;2.3;;
27357;SDS011;14831;50.474;7.616;2023-07-29T15:30:57;2.6;;;2.3;;
27357;SDS011;14831;50.474;7.616;2023-07-29T15:35:57;2.6;;;2.3;;
27357;SDS011;14831;50.474;7.616;2023-07-29T15:40:57;2.6;;;2.3;;
27357;SDS011;14831;50.474;7.616;2023-07-29T15:45:57;1.8;;;1.6;;
27357;SDS011;14831;50.474;7.616;2023-07-29T15:50:57;1.8;;;1.6;;
27357;SDS011;14831;50.474;7.616;2023-07-29T15:55:57;1.8;;;1.6;;
27357;SDS011;14831;50.474;7.616;2023-07-29T16:00:57;1.8;;;1.6;;
27357;SDS011;14831;50.474;7.616;2023-07-29T16:05:57;1.8;;;1.6;;
27357;SDS011;14831;50.474;7.616;2023-07-29T16:10:57;1.8;;;1.6;;
27357;SDS011;14831;50.474;7.616;2023-07-29T16:15:57;1.8;;;1.7;;
27357;SDS011;14831;50.474;7.616;2023-07-29T16:20:57;1.8;;;1.7;;
27357;SDS011;14831;50.474;7.616;2023-07-29T16:25:57;1.8;;;1.7;;
27357;SDS011;14831;50.474;7.616;2023-07-29T16:31:02;1.8;;;1.7;;
27357;SDS011;14831;50.474;7.616;2023-07-29T16:35:57;1.8;;;1.7;;
27357;SDS011;14831;50.474;7.616;2023-07-29T16:40:57;1.8;;;1.7;;
27357;SDS011;14831;50.474;7.616;2023-07-29T16:45:58;2.0;;;1.8;;
27357;SDS011;14831;50.474;7.616;2023-07-29T16:50:57;2.0;;;1.8;;
27357;SDS011;14831;50.474;7.616;2023-07-29T16:55:57;2.0;;;1.8;;
27357;SDS011;14831;50.474;7.616;2023-07-29T17:00:57;2.0;;;1.8;;
27357;SDS011;14831;50.474;7.616;2023-07-29T17:05:57;2.0;;;1.8;;
27357;SDS011;14831;50.474;7.616;2023-07-29T17:10:57;2.0;;;1.8;;
27357;SDS011;14831;50.474;7.616;2023-07-29T17:15:57;1.9;;;1.7;;
27357;SDS011;14831;50.474;7.616;2023-07-29T17:20:57;1.9;;;1.7;;
27357;SDS011;14831;50.474;7.616;2023-07-29T17:25:57;1.9;;;1.7;;
27357;SDS011;14831;50.474;7.616;2023-07-29T17:30:57;1.9;;;1.7;;
27357;SDS011;14831;50.474;7.616;2023-07-29T17:35:57;1.9;;;1.7;;
27357;SDS011;14831;50.474;7.616;2023-07-29T17:40:57;1.9;;;1.7;;
27357;SDS011;14831;50.474;7.616;2023-07-29T17:45:57;2.8;;;2.1;;
27357;SDS011;14831;50.474;7.616;2023-07-29T17:50:57;2.8;;;2.1;;
27357;SDS011;14831;50.474;7.616;2023-07-29T17:55:57;2.8;;;2.1;;
27357;SDS011;14831;50.474;7.616;2023-07-29T18:00:57;2.8;;;2.1;;
27357;SDS011;14831;50.474;7.616;2023-07-29T18:05:57;2.8;;;2.1;;
27357;SDS011;14831;50.474;7.616;2023-07-29T18:10:57;2.8;;;2.1;;
27357;SDS011;14831;50.474;7.616;2023-07-29T18:15:58;2.1;;;1.9;;
27357;SDS011;14831;50.474;7.616;2023-07-29T18:20:57;2.1;;;1.9;;
27357;SDS011;14831;50.474;7.616;2023-07-29T18:25:57;2.1;;;1.9;;
27357;SDS011;14831;50.474;7.616;2023-07-29T18:30:57;2.1;;;1.9;;
27357;SDS011;14831;50.474;7.616;2023-07-29T18:35:57;2.1;;;1.9;;
27357;SDS011;14831;50.474;7.616;2023-07-29T18:40:57;2.1;;;1.9;;
27357;SDS011;14831;50.474;7.616;2023-07-29T18:45:57;2.6;;;2.4;;
27357;SDS011;14831;50.474;7.616;2023-07-29T18:50:57;2.6;;;2.4;;
27357;SDS011;14831;50.474;7.616;2023-07-29T18:55:57;2.6;;;2.4;;
27357;SDS011;14831;50.474;7.616;2023-07-29T19:00:57;2.6;;;2.4;;
27357;SDS011;14831;50.474;7.616;2023-07-29T19:05:57;2.6;;;2.4;;
27357;SDS011;14831;50.474;7.616;2023-07-29T19:10:57;2.6;;;2.4;;
27357;SDS011;14831;50.474;7.616;2023-07-29T19:15:57;2.6;;;2.1;;
27357;SDS011;14831;50.474;7.616;2023-07-29T19:20:58;2.6;;;2.1;;
27357;SDS011;14831;50.474;7.616;2023-07-29T19:25:57;2.6;;;2.1;;
27357;SDS011;14831;50.474;7.616;2023-07-29T19:30:57;2.6;;;2.1;;
27357;SDS011;14831;50.474;7.616;2023-07-29T19:35:57;2.6;;;2.1;;
27357;SDS011;14831;50.474;7.616;2023-07-29T19:40:59;2.6;;;2.1;;
27357;SDS011;14831;50.474;7.616;2023-07-29T19:45:57;11.9;;;2.6;;
27357;SDS011;14831;50.474;7.616;2023-07-29T19:50:57;11.9;;;2.6;;
27357;SDS011;14831;50.474;7.616;2023-07-29T19:55:57;11.9;;;2.6;;
27357;SDS011;14831;50.474;7.616;2023-07-29T20:00:57;11.9;;;2.6;;
27357;SDS011;14831;50.474;7.616;2023-07-29T20:05:57;11.9;;;2.6;;
27357;SDS011;14831;50.474;7.616;2023-07-29T20:10:57;11.9;;;2.6;;
27357;SDS011;14831;50.474;7.616;2023-07-29T20:15:57;9.2;;;3.0;;
27357;SDS011;14831;50.474;7.616;2023-07-29T20:20:57;9.2;;;3.0;;
27357;SDS011;14831;50.474;7.616;2023-07-29T20:25:59;9.2;;;3.0;;
27357;SDS011;14831;50.474;7.616;2023-07-29T20:30:58;9.2;;;3.0;;
27357;SDS011;14831;50.474;7.616;2023-07-29T20:35:59;9.2;;;3.0;;
27357;SDS011;14831;50.474;7.616;2023-07-29T20:40:57;9.2;;;3.0;;
27357;SDS011;14831;50.474;7.616;2023-07-29T20:45:57;5.7;;;2.5;;
27357;SDS011;14831;50.474;7.616;2023-07-29T20:50:57;5.7;;;2.5;;
27357;SDS011;14831;50.474;7.616;2023-07-29T20:55:57;5.7;;;2.5;;
27357;SDS011;14831;50.474;7.616;2023-07-29T21:00:57;5.7;;;2.5;;
27357;SDS011;14831;50.474;7.616;2023-07-29T21:05:57;5.7;;;2.5;;
27357;SDS011;14831;50.474;7.616;2023-07-29T21:10:57;5.7;;;2.5;;
27357;SDS011;14831;50.474;7.616;2023-07-29T21:15:57;5.4;;;2.5;;
27357;SDS011;14831;50.474;7.616;2023-07-29T21:20:57;5.4;;;2.5;;
27357;SDS011;14831;50.474;7.616;2023-07-29T21:25:57;5.4;;;2.5;;
27357;SDS011;14831;50.474;7.616;2023-07-29T21:30:58;5.4;;;2.5;;
27357;SDS011;14831;50.474;7.616;2023-07-29T21:35:57;5.4;;;2.5;;
27357;SDS011;14831;50.474;7.616;2023-07-29T21:40:57;5.4;;;2.5;;
27357;SDS011;14831;50.474;7.616;2023-07-29T21:45:57;3.0;;;2.1;;
27357;SDS011;14831;50.474;7.616;2023-07-29T21:50:57;3.0;;;2.1;;
27357;SDS011;14831;50.474;7.616;2023-07-29T21:56:00;3.0;;;2.1;;
27357;SDS011;14831;50.474;7.616;2023-07-29T22:00:57;3.0;;;2.1;;
27357;SDS011;14831;50.474;7.616;2023-07-29T22:06:02;3.0;;;2.1;;
27357;SDS011;14831;50.474;7.616;2023-07-29T22:11:04;3.0;;;2.1;;
27357;SDS011;14831;50.474;7.616;2023-07-29T22:15:57;4.7;;;2.3;;
27357;SDS011;14831;50.474;7.616;2023-07-29T22:20:59;4.7;;;2.3;;
27357;SDS011;14831;50.474;7.616;2023-07-29T22:25:57;4.7;;;2.3;;
27357;SDS011;14831;50.474;7.616;2023-07-29T22:30:58;4.7;;;2.3;;
27357;SDS011;14831;50.474;7.616;2023-07-29T22:35:58;4.7;;;2.3;;
27357;SDS011;14831;50.474;7.616;2023-07-29T22:40:57;4.7;;;2.3;;
27357;SDS011;14831;50.474;7.616;2023-07-29T22:45:58;5.2;;;1.9;;
27357;SDS011;14831;50.474;7.616;2023-07-29T22:50:57;5.2;;;1.9;;
27357;SDS011;14831;50.474;7.616;2023-07-29T22:55:57;5.2;;;1.9;;
27357;SDS011;14831;50.474;7.616;2023-07-29T23:00:57;5.2;;;1.9;;
27357;SDS011;14831;50.474;7.616;2023-07-29T23:05:57;5.2;;;1.9;;
27357;SDS011;14831;50.474;7.616;2023-07-29T23:11:00;5.2;;;1.9;;
27357;SDS011;14831;50.474;7.616;2023-07-29T23:15:59;3.0;;;1.8;;
27357;SDS011;14831;50.474;7.616;2023-07-29T23:20:57;3.0;;;1.8;;
27357;SDS011;14831;50.474;7.616;2023-07-29T23:25:57;3.0;;;1.8;;
27357;SDS011;14831;50.474;7.616;2023-07-29T23:30:57;3.0;;;1.8;;
27357;SDS011;14831;50.474;7.616;2023-07-29T23:35:59;3.0;;;1.8;;
27357;SDS011;14831;50.474;7.616;2023-07-29T23:40:57;3.0;;;1.8;;
27357;SDS011;14831;50.474;7.616;2023-07-29T23:45:57;2.2;;;2.0;;
27357;SDS011;14831;50.474;7.616;2023-07-29T23:50:57;2.2;;;2.0;;
27357;SDS011;14831;50.474;7.616;2023-07-29T23:55:57;2.2;;;2.0;;
